createdAt,value
2018-05-14T00:00:28.185Z,25.10
2018-05-14T00:05:29.911Z,24.67
2018-05-14T00:10:32.210Z,22.57
2018-05-14T00:15:33.802Z,24.20
2018-05-14T00:20:35.334Z,20.97
2018-05-14T00:25:37.794Z,19.83
2018-05-14T00:30:39.327Z,19.87
2018-05-14T00:35:40.846Z,19.53
2018-05-14T00:40:42.647Z,18.53
2018-05-14T00:45:44.132Z,19.40
2018-05-14T00:50:46.049Z,20.63
2018-05-14T00:55:47.943Z,15.73
2018-05-14T01:00:49.509Z,17.00
2018-05-14T01:05:51.045Z,16.93
2018-05-14T01:10:52.599Z,18.37
2018-05-14T01:15:54.429Z,18.00
2018-05-14T01:20:56.892Z,20.30
2018-05-14T01:25:59.242Z,15.10
2018-05-14T01:31:00.880Z,17.17
2018-05-14T01:36:03.249Z,16.83
2018-05-14T01:41:04.815Z,18.13
2018-05-14T01:46:06.338Z,16.90
2018-05-14T01:51:08.107Z,18.13
2018-05-14T01:56:09.751Z,15.17
2018-05-14T02:01:12.135Z,13.90
2018-05-14T02:06:14.556Z,14.60
2018-05-14T02:11:16.087Z,14.60
2018-05-14T02:16:18.351Z,14.80
2018-05-14T02:21:19.897Z,15.20
2018-05-14T02:26:21.634Z,14.87
2018-05-14T02:31:23.463Z,15.60
2018-05-14T02:36:25.267Z,15.10
2018-05-14T02:41:27.776Z,16.80
2018-05-14T02:46:29.535Z,17.37
2018-05-14T02:51:31.922Z,18.10
2018-05-14T02:56:34.513Z,17.03
2018-05-14T03:01:36.805Z,15.33
2018-05-14T03:06:38.576Z,18.20
2018-05-14T03:11:41.066Z,18.97
2018-05-14T03:16:43.477Z,18.20
2018-05-14T03:21:45.240Z,18.73
2018-05-14T03:26:46.788Z,25.80
2018-05-14T03:31:49.028Z,26.80
2018-05-14T03:36:50.671Z,27.23
2018-05-14T03:41:52.427Z,26.53
2018-05-14T03:46:54.919Z,26.60
2018-05-14T03:51:56.891Z,25.53
2018-05-14T03:56:59.702Z,24.30
2018-05-14T04:02:28.656Z,24.70
2018-05-14T04:07:30.860Z,23.20
2018-05-14T04:12:32.385Z,24.30
2018-05-14T04:17:35.527Z,25.87
2018-05-14T04:22:37.086Z,24.50
2018-05-14T04:27:38.908Z,24.27
2018-05-14T04:32:40.607Z,24.93
2018-05-14T04:37:42.338Z,25.97
2018-05-14T04:42:44.748Z,26.13
2018-05-14T04:47:46.310Z,23.50
2018-05-14T04:52:48.079Z,28.70
2018-05-14T04:57:49.931Z,28.53
2018-05-14T05:02:51.737Z,27.27
2018-05-14T05:07:53.488Z,29.10
2018-05-14T05:12:56.002Z,28.57
2018-05-14T05:17:57.759Z,26.83
2018-05-14T05:23:00.265Z,26.03
2018-05-14T05:28:01.819Z,26.80
2018-05-14T05:33:04.519Z,26.17
2018-05-14T05:38:06.192Z,26.80
2018-05-14T05:43:07.717Z,28.17
2018-05-14T05:48:09.309Z,27.70
2018-05-14T05:53:11.575Z,27.43
2018-05-14T05:58:13.495Z,27.90
2018-05-14T06:03:15.039Z,28.73
2018-05-14T06:08:17.543Z,30.43
2018-05-14T06:13:19.835Z,28.50
2018-05-14T06:18:21.347Z,27.27
2018-05-14T06:23:22.943Z,27.53
2018-05-14T06:28:24.515Z,27.40
2018-05-14T06:33:26.100Z,29.33
2018-05-14T06:38:28.390Z,29.17
2018-05-14T06:43:30.672Z,29.23
2018-05-14T06:48:33.013Z,26.67
2018-05-14T06:53:34.743Z,24.50
2018-05-14T06:58:36.331Z,25.87
2018-05-14T07:03:37.925Z,26.27
2018-05-14T07:08:39.453Z,26.10
2018-05-14T07:13:41.231Z,25.00
2018-05-14T07:18:42.759Z,25.63
2018-05-14T07:23:44.244Z,26.20
2018-05-14T07:28:46.667Z,26.40
2018-05-14T07:33:48.432Z,26.47
2018-05-14T07:38:50.186Z,27.23
2018-05-14T07:43:52.259Z,25.97
2018-05-14T07:48:55.159Z,25.87
2018-05-14T07:53:57.454Z,24.87
2018-05-14T07:58:59.191Z,26.90
2018-05-14T08:04:00.748Z,25.43
2018-05-14T08:09:02.310Z,26.10
2018-05-14T08:14:04.141Z,25.97
2018-05-14T08:19:05.684Z,26.70
2018-05-14T08:24:07.304Z,26.80
2018-05-14T08:29:09.042Z,24.77
2018-05-14T08:34:11.599Z,27.07
2018-05-14T08:39:13.133Z,25.60
2018-05-14T08:44:14.650Z,25.50
2018-05-14T08:49:16.157Z,25.80
2018-05-14T08:54:17.913Z,23.27
2018-05-14T08:59:19.480Z,24.40
2018-05-14T09:04:21.956Z,22.53
2018-05-14T09:09:24.295Z,23.33
2018-05-14T09:14:25.931Z,24.40
2018-05-14T09:19:28.362Z,26.60
2018-05-14T09:24:29.766Z,27.97
2018-05-14T09:29:32.239Z,24.60
2018-05-14T09:34:33.834Z,25.90
2018-05-14T09:39:36.099Z,27.57
2018-05-14T09:44:37.946Z,27.13
2018-05-14T09:49:39.570Z,23.70
2018-05-14T09:54:42.051Z,27.33
2018-05-14T09:59:44.413Z,29.13
2018-05-14T10:04:46.030Z,26.67
2018-05-14T10:09:47.812Z,25.90
2018-05-14T10:14:49.698Z,24.37
2018-05-14T10:19:51.435Z,26.13
2018-05-14T10:24:53.723Z,26.13
2018-05-14T10:29:56.015Z,23.30
2018-05-14T10:34:58.350Z,23.63
2018-05-14T10:39:59.919Z,19.13
2018-05-14T10:45:01.641Z,16.90
2018-05-14T10:50:04.172Z,15.73
2018-05-14T10:55:05.747Z,17.37
2018-05-14T11:00:07.608Z,17.70
2018-05-14T11:05:09.208Z,18.80
2018-05-14T11:10:10.929Z,18.17
2018-05-14T11:15:12.505Z,17.40
2018-05-14T11:20:14.582Z,16.00
2018-05-14T11:25:16.371Z,17.73
2018-05-14T11:30:18.069Z,17.17
2018-05-14T11:35:19.831Z,15.73
2018-05-14T11:40:21.568Z,16.37
2018-05-14T11:45:23.329Z,16.20
2018-05-14T11:50:25.873Z,15.63
2018-05-14T11:55:27.654Z,16.93
2018-05-14T12:00:29.584Z,21.30
2018-05-14T12:05:31.169Z,18.33
2018-05-14T12:10:32.923Z,18.87
2018-05-14T12:15:34.874Z,19.70
2018-05-14T12:20:36.475Z,19.47
2018-05-14T12:25:45.351Z,21.97
2018-05-14T12:30:46.856Z,20.20
2018-05-14T12:35:49.405Z,21.50
2018-05-14T12:40:51.150Z,20.60
2018-05-14T12:45:52.746Z,20.07
2018-05-14T12:50:54.481Z,20.83
2018-05-14T12:55:56.262Z,18.10
2018-05-14T13:00:57.857Z,20.10
2018-05-14T13:05:59.620Z,18.50
2018-05-14T13:11:01.264Z,18.50
2018-05-14T13:16:03.610Z,17.23
2018-05-14T13:21:06.365Z,17.40
2018-05-14T13:26:08.222Z,18.40
2018-05-14T13:31:09.776Z,19.53
2018-05-14T13:36:12.290Z,18.73
2018-05-14T13:41:13.835Z,17.93
2018-05-14T13:46:15.635Z,17.93
2018-05-14T13:51:17.152Z,18.10
2018-05-14T13:56:18.978Z,19.03
2018-05-14T14:01:20.748Z,24.23
2018-05-14T14:06:22.401Z,22.03
2018-05-14T14:11:24.866Z,9.77
2018-05-14T14:16:26.542Z,10.50
2018-05-14T14:21:28.269Z,12.17
2018-05-14T14:26:29.840Z,12.17
2018-05-14T14:31:31.691Z,16.70
2018-05-14T14:36:33.308Z,47.60
2018-05-14T14:41:34.898Z,16.47
2018-05-14T14:46:36.568Z,16.93
2018-05-14T14:51:38.239Z,16.07
2018-05-14T14:56:39.907Z,16.23
2018-05-14T15:01:41.673Z,17.13
2018-05-14T15:06:43.247Z,16.07
2018-05-14T15:11:44.832Z,16.47
2018-05-14T15:16:46.402Z,16.63
2018-05-14T15:21:48.040Z,15.70
2018-05-14T15:26:49.766Z,10.77
2018-05-14T15:31:52.085Z,13.43
2018-05-14T15:36:53.772Z,10.93
2018-05-14T15:41:55.497Z,11.00
2018-05-14T15:46:57.790Z,8.63
2018-05-14T15:51:59.384Z,9.40
2018-05-14T15:57:01.079Z,9.13
2018-05-14T16:02:02.871Z,10.70
2018-05-14T16:07:04.597Z,10.77
2018-05-14T16:12:06.136Z,9.67
2018-05-14T16:17:08.634Z,13.07
2018-05-14T16:22:10.220Z,13.10
2018-05-14T16:27:11.976Z,11.93
2018-05-14T16:32:13.776Z,12.50
2018-05-14T16:37:15.519Z,10.77
2018-05-14T16:42:17.319Z,11.70
2018-05-14T16:47:19.205Z,13.00
2018-05-14T16:52:20.801Z,13.63
2018-05-14T16:57:22.574Z,14.80
2018-05-14T17:02:24.804Z,14.20
2018-05-14T17:07:26.501Z,13.23
2018-05-14T17:12:28.244Z,15.77
2018-05-14T17:17:29.873Z,13.87
2018-05-14T17:22:31.721Z,18.00
2018-05-14T17:27:33.334Z,14.13
2018-05-14T17:32:35.023Z,16.20
2018-05-14T17:37:37.313Z,14.77
2018-05-14T17:42:38.929Z,15.30
2018-05-14T17:47:40.551Z,12.60
2018-05-14T17:52:42.305Z,14.70
2018-05-14T17:57:44.095Z,12.50
2018-05-14T18:02:46.720Z,19.10
2018-05-14T18:07:48.332Z,13.37
2018-05-14T18:12:49.916Z,12.80
2018-05-14T18:17:52.319Z,10.10
2018-05-14T18:22:55.205Z,8.57
2018-05-14T18:28:00.659Z,8.30
2018-05-14T18:33:03.227Z,7.90
2018-05-14T18:38:04.955Z,6.73
2018-05-14T18:43:06.539Z,6.17
2018-05-14T18:48:08.196Z,5.70
2018-05-14T18:53:09.957Z,5.73
2018-05-14T18:58:11.715Z,6.33
2018-05-14T19:03:17.637Z,5.97
2018-05-14T19:08:19.378Z,6.13
2018-05-14T19:13:21.189Z,5.87
2018-05-14T19:18:22.744Z,6.40
2018-05-14T19:23:32.095Z,5.57
2018-05-14T19:28:39.779Z,6.00
2018-05-14T19:33:47.713Z,6.43
2018-05-14T19:38:49.214Z,5.57
2018-05-14T19:43:50.802Z,5.87
2018-05-14T19:48:52.455Z,6.80
2018-05-14T19:53:54.160Z,6.37
2018-05-14T19:58:56.703Z,6.37
2018-05-14T20:03:59.068Z,6.30
2018-05-14T20:09:00.664Z,6.17
2018-05-14T20:14:02.269Z,6.87
2018-05-14T20:19:04.764Z,5.53
2018-05-14T20:24:07.170Z,8.07
2018-05-14T20:29:09.659Z,7.00
2018-05-14T20:34:18.800Z,7.13
2018-05-14T20:39:21.258Z,6.80
2018-05-14T20:44:22.831Z,6.10
2018-05-14T20:49:24.442Z,6.47
2018-05-14T20:54:25.983Z,6.30
2018-05-14T20:59:27.606Z,6.23
2018-05-14T21:04:29.461Z,6.03
2018-05-14T21:09:31.136Z,5.70
2018-05-14T21:14:32.875Z,5.60
2018-05-14T21:19:35.203Z,5.77
2018-05-14T21:24:36.767Z,5.87
2018-05-14T21:29:38.481Z,5.77
2018-05-14T21:34:40.204Z,5.43
2018-05-14T21:39:42.418Z,5.10
2018-05-14T21:44:44.029Z,5.70
2018-05-14T21:49:46.640Z,5.60
2018-05-14T21:54:48.156Z,6.10
2018-05-14T21:59:49.682Z,6.03
2018-05-14T22:04:51.721Z,5.73
2018-05-14T22:09:53.405Z,6.37
2018-05-14T22:14:54.954Z,5.33
2018-05-14T22:19:56.787Z,6.13
2018-05-14T22:24:58.548Z,5.57
2018-05-14T22:30:00.220Z,5.53
2018-05-14T22:35:01.937Z,5.60
2018-05-14T22:40:03.828Z,6.03
2018-05-14T22:45:05.394Z,6.43
2018-05-14T22:50:06.956Z,6.67
2018-05-14T22:55:08.553Z,6.53
2018-05-14T23:00:10.937Z,6.50
2018-05-14T23:05:13.412Z,6.33
2018-05-14T23:10:15.240Z,7.30
2018-05-14T23:15:16.835Z,6.90
2018-05-14T23:20:18.638Z,6.57
2018-05-14T23:25:20.342Z,6.80
2018-05-14T23:30:22.102Z,7.07
2018-05-14T23:35:23.939Z,6.73
2018-05-14T23:40:26.585Z,7.30
2018-05-14T23:45:28.343Z,7.70
2018-05-14T23:50:30.602Z,6.77
2018-05-14T23:55:32.389Z,7.27
